createdAt,value
2017-08-23T00:02:00.527Z,27.90
2017-08-23T00:04:31.298Z,27.80
2017-08-23T00:07:01.795Z,27.90
2017-08-23T00:09:32.099Z,28.10
2017-08-23T00:12:02.524Z,28.10
2017-08-23T00:14:33.078Z,28.20
2017-08-23T00:17:03.680Z,28.20
2017-08-23T00:19:34.118Z,28.30
2017-08-23T00:22:04.590Z,28.30
2017-08-23T00:24:35.137Z,28.30
2017-08-23T00:27:08.949Z,28.30
2017-08-23T00:29:39.435Z,28.20
2017-08-23T00:32:10.613Z,28.10
2017-08-23T00:34:41.051Z,28.10
2017-08-23T00:37:11.431Z,28.10
2017-08-23T00:39:42.077Z,28.10
2017-08-23T00:42:13.358Z,28.20
2017-08-23T00:44:43.896Z,28.20
2017-08-23T00:47:14.380Z,28.30
2017-08-23T00:49:44.955Z,28.30
2017-08-23T00:52:15.607Z,28.40
2017-08-23T00:54:46.204Z,28.50
2017-08-23T00:57:16.547Z,28.60
2017-08-23T00:59:46.830Z,28.90
2017-08-23T01:02:17.351Z,29.40
2017-08-23T01:04:48.144Z,29.80
2017-08-23T01:07:18.530Z,30.30
2017-08-23T01:09:49.185Z,30.70
2017-08-23T01:12:19.792Z,31.00
2017-08-23T01:14:50.342Z,30.90
2017-08-23T01:17:20.923Z,30.80
2017-08-23T01:19:51.515Z,30.60
2017-08-23T01:22:22.158Z,30.80
2017-08-23T01:24:52.655Z,31.10
2017-08-23T01:27:23.042Z,31.30
2017-08-23T01:29:53.543Z,31.40
2017-08-23T01:32:24.132Z,31.40
2017-08-23T01:34:54.583Z,31.50
2017-08-23T01:37:25.172Z,31.60
2017-08-23T01:39:55.708Z,31.50
2017-08-23T01:42:26.179Z,31.50
2017-08-23T01:44:57.491Z,31.80
2017-08-23T01:47:28.032Z,31.80
2017-08-23T01:49:59.378Z,32.60
2017-08-23T01:52:29.938Z,32.50
2017-08-23T01:55:00.499Z,32.70
2017-08-23T01:57:30.916Z,33.40
2017-08-23T02:00:01.430Z,34.00
2017-08-23T02:02:32.472Z,34.30
2017-08-23T02:05:03.345Z,34.20
2017-08-23T02:07:33.728Z,34.20
2017-08-23T02:10:04.235Z,34.10
2017-08-23T02:12:34.751Z,34.20
2017-08-23T02:15:05.288Z,34.20
2017-08-23T02:17:35.883Z,34.20
2017-08-23T02:20:06.450Z,34.10
2017-08-23T02:22:36.821Z,34.10
2017-08-23T02:25:07.347Z,34.10
2017-08-23T02:27:38.736Z,33.80
2017-08-23T02:30:09.298Z,33.80
2017-08-23T02:32:39.661Z,33.70
2017-08-23T02:35:10.230Z,33.50
2017-08-23T02:37:40.623Z,33.30
2017-08-23T02:40:11.183Z,33.10
2017-08-23T02:42:41.665Z,33.00
2017-08-23T02:45:12.319Z,32.90
2017-08-23T02:47:42.801Z,32.90
2017-08-23T02:50:13.232Z,32.90
2017-08-23T02:52:43.522Z,32.90
2017-08-23T02:55:14.152Z,33.00
2017-08-23T02:57:44.430Z,33.10
2017-08-23T03:00:14.854Z,33.30
2017-08-23T03:02:45.349Z,33.40
2017-08-23T03:05:16.811Z,33.50
2017-08-23T03:07:47.282Z,33.60
2017-08-23T03:10:17.854Z,33.70
2017-08-23T03:12:48.342Z,33.80
2017-08-23T03:15:18.875Z,33.90
2017-08-23T03:17:49.266Z,33.90
2017-08-23T03:20:19.860Z,34.00
2017-08-23T03:22:50.488Z,34.00
2017-08-23T03:25:20.880Z,34.20
2017-08-23T03:27:51.228Z,34.30
2017-08-23T03:30:21.791Z,34.30
2017-08-23T03:32:52.275Z,34.50
2017-08-23T03:35:22.665Z,34.60
2017-08-23T03:37:53.089Z,34.80
2017-08-23T03:40:23.715Z,34.50
2017-08-23T03:42:53.892Z,34.20
2017-08-23T03:45:24.467Z,33.80
2017-08-23T03:47:54.894Z,33.50
2017-08-23T03:50:25.337Z,33.10
2017-08-23T03:52:55.583Z,32.90
2017-08-23T03:55:26.162Z,32.70
2017-08-23T03:57:56.524Z,32.50
2017-08-23T04:00:26.853Z,32.50
2017-08-23T04:02:57.041Z,32.40
2017-08-23T04:05:27.773Z,32.40
2017-08-23T04:07:58.286Z,32.50
2017-08-23T04:10:28.736Z,32.80
2017-08-23T04:12:59.803Z,33.50
2017-08-23T04:15:30.420Z,33.40
2017-08-23T04:18:01.054Z,33.80
2017-08-23T04:20:31.792Z,34.20
2017-08-23T04:23:02.426Z,34.60
2017-08-23T04:25:32.966Z,34.80
2017-08-23T04:28:03.473Z,34.90
2017-08-23T04:30:34.024Z,34.90
2017-08-23T04:33:04.488Z,34.80
2017-08-23T04:35:34.858Z,34.50
2017-08-23T04:38:05.450Z,34.20
2017-08-23T04:40:35.736Z,34.10
2017-08-23T04:43:06.380Z,34.20
2017-08-23T04:45:36.855Z,34.30
2017-08-23T04:48:07.330Z,34.60
2017-08-23T04:50:37.763Z,34.70
2017-08-23T04:53:08.242Z,34.50
2017-08-23T04:55:38.791Z,34.30
2017-08-23T04:58:09.400Z,34.00
2017-08-23T05:00:39.994Z,33.70
2017-08-23T05:03:13.551Z,33.50
2017-08-23T05:05:45.042Z,33.30
2017-08-23T05:08:18.142Z,33.00
2017-08-23T05:10:49.058Z,32.80
2017-08-23T05:13:19.702Z,32.70
2017-08-23T05:15:50.270Z,32.70
2017-08-23T05:18:21.336Z,32.80
2017-08-23T05:20:52.489Z,33.20
2017-08-23T05:23:25.849Z,33.10
2017-08-23T05:25:56.878Z,33.20
2017-08-23T05:28:27.474Z,33.10
2017-08-23T05:30:58.096Z,33.00
2017-08-23T05:33:31.733Z,32.80
2017-08-23T05:36:02.826Z,32.70
2017-08-23T05:38:35.428Z,32.70
2017-08-23T05:41:07.267Z,32.60
2017-08-23T05:43:37.726Z,32.60
2017-08-23T05:46:08.397Z,32.60
2017-08-23T05:48:45.346Z,32.50
2017-08-23T05:51:16.702Z,32.30
2017-08-23T05:53:47.946Z,32.30
2017-08-23T05:56:19.025Z,32.50
2017-08-23T05:58:49.406Z,32.40
2017-08-23T06:01:20.688Z,32.50
2017-08-23T06:03:51.545Z,32.50
2017-08-23T06:06:22.522Z,32.50
2017-08-23T06:08:54.278Z,32.50
2017-08-23T06:11:27.408Z,32.50
2017-08-23T06:13:58.510Z,32.50
2017-08-23T06:16:31.160Z,32.50
2017-08-23T06:19:02.799Z,32.50
2017-08-23T06:21:36.163Z,32.50
2017-08-23T06:24:07.236Z,32.40
2017-08-23T06:26:38.234Z,32.50
2017-08-23T06:29:09.442Z,32.60
2017-08-23T06:31:41.012Z,33.10
2017-08-23T06:34:12.253Z,33.70
2017-08-23T06:36:43.202Z,34.00
2017-08-23T06:39:14.325Z,34.00
2017-08-23T06:41:44.900Z,34.00
2017-08-23T06:44:15.493Z,33.90
2017-08-23T06:46:46.106Z,33.80
2017-08-23T06:49:16.838Z,33.60
2017-08-23T06:51:47.523Z,33.50
2017-08-23T06:54:17.908Z,33.40
2017-08-23T06:56:48.318Z,33.30
2017-08-23T06:59:18.841Z,33.40
2017-08-23T07:01:49.396Z,33.30
2017-08-23T07:04:19.955Z,33.20
2017-08-23T07:06:50.775Z,32.90
2017-08-23T07:09:21.259Z,32.80
2017-08-23T07:11:52.441Z,32.70
2017-08-23T07:14:23.068Z,32.60
2017-08-23T07:16:53.491Z,32.50
2017-08-23T07:19:23.983Z,32.50
2017-08-23T07:21:54.300Z,32.50
2017-08-23T07:24:24.903Z,32.50
2017-08-23T07:26:55.511Z,32.50
2017-08-23T07:29:26.155Z,32.50
2017-08-23T07:31:56.781Z,32.50
2017-08-23T07:34:27.098Z,32.50
2017-08-23T07:36:57.566Z,32.50
2017-08-23T07:39:28.035Z,32.50
2017-08-23T07:41:58.504Z,32.80
2017-08-23T07:44:28.994Z,33.10
2017-08-23T07:46:59.646Z,33.50
2017-08-23T07:49:30.123Z,33.90
2017-08-23T07:52:00.727Z,34.10
2017-08-23T07:54:31.285Z,34.10
2017-08-23T07:57:01.690Z,34.30
2017-08-23T07:59:31.996Z,34.50
2017-08-23T08:02:02.562Z,34.60
2017-08-23T08:04:32.908Z,34.80
2017-08-23T08:07:04.061Z,35.10
2017-08-23T08:09:34.432Z,35.30
2017-08-23T08:12:04.804Z,35.30
2017-08-23T08:14:35.263Z,35.20
2017-08-23T08:17:09.002Z,34.90
2017-08-23T08:19:39.467Z,34.80
2017-08-23T08:22:10.067Z,34.60
2017-08-23T08:24:40.664Z,34.40
2017-08-23T08:27:11.313Z,34.30
2017-08-23T08:29:41.821Z,34.20
2017-08-23T08:32:12.460Z,34.00
2017-08-23T08:34:43.212Z,34.10
2017-08-23T08:37:13.719Z,34.20
2017-08-23T08:39:44.100Z,34.10
2017-08-23T08:42:14.721Z,34.10
2017-08-23T08:44:44.985Z,34.00
2017-08-23T08:47:16.128Z,34.10
2017-08-23T08:49:46.585Z,34.10
2017-08-23T08:52:17.030Z,34.20
2017-08-23T08:54:47.646Z,34.30
2017-08-23T08:57:18.015Z,34.40
2017-08-23T08:59:50.060Z,34.30
2017-08-23T09:02:20.700Z,34.10
2017-08-23T09:04:51.285Z,34.00
2017-08-23T09:07:22.084Z,34.00
2017-08-23T09:09:52.596Z,33.90
2017-08-23T09:12:22.935Z,33.90
2017-08-23T09:14:53.416Z,34.00
2017-08-23T09:17:23.960Z,33.90
2017-08-23T09:19:55.094Z,33.90
2017-08-23T09:22:25.750Z,33.90
2017-08-23T09:24:56.216Z,33.90
2017-08-23T09:27:26.813Z,34.00
2017-08-23T09:29:57.391Z,34.00
2017-08-23T09:32:28.000Z,34.00
2017-08-23T09:34:58.628Z,33.90
2017-08-23T09:37:29.250Z,33.80
2017-08-23T09:39:59.755Z,33.80
2017-08-23T09:42:29.923Z,33.70
2017-08-23T09:45:00.519Z,33.60
2017-08-23T09:47:31.101Z,33.40
2017-08-23T09:50:01.693Z,33.30
2017-08-23T09:52:32.221Z,33.20
2017-08-23T09:55:02.697Z,33.10
2017-08-23T09:57:33.998Z,32.90
2017-08-23T10:00:05.729Z,32.90
2017-08-23T10:02:36.178Z,32.90
2017-08-23T10:05:06.613Z,32.80
2017-08-23T10:07:38.228Z,32.60
2017-08-23T10:10:08.847Z,32.60
2017-08-23T10:12:39.316Z,32.60
2017-08-23T10:15:09.533Z,32.60
2017-08-23T10:17:40.097Z,32.50
2017-08-23T10:20:11.283Z,32.50
2017-08-23T10:22:41.785Z,32.40
2017-08-23T10:25:12.285Z,32.40
2017-08-23T10:27:42.907Z,32.40
2017-08-23T10:30:13.440Z,32.30
2017-08-23T10:32:44.101Z,32.20
2017-08-23T10:35:14.542Z,32.00
2017-08-23T10:37:45.191Z,31.90
2017-08-23T10:40:15.765Z,31.80
2017-08-23T10:42:46.086Z,31.60
2017-08-23T10:45:16.536Z,31.50
2017-08-23T10:47:46.857Z,31.40
2017-08-23T10:50:17.367Z,31.30
2017-08-23T10:52:47.817Z,31.20
2017-08-23T10:55:18.398Z,31.20
2017-08-23T10:57:49.116Z,31.10
2017-08-23T11:00:19.516Z,31.00
2017-08-23T11:02:50.330Z,30.90
2017-08-23T11:05:20.822Z,30.80
2017-08-23T11:07:51.659Z,30.80
2017-08-23T11:10:22.090Z,30.70
2017-08-23T11:12:52.625Z,30.60
2017-08-23T11:15:23.085Z,30.40
2017-08-23T11:17:53.367Z,30.30
2017-08-23T11:20:23.770Z,30.20
2017-08-23T11:22:54.003Z,30.20
2017-08-23T11:25:25.277Z,30.20
2017-08-23T11:27:55.517Z,30.10
2017-08-23T11:30:25.900Z,30.20
2017-08-23T11:32:56.275Z,30.10
2017-08-23T11:35:26.846Z,30.10
2017-08-23T11:37:57.912Z,30.10
2017-08-23T11:40:28.316Z,30.10
2017-08-23T11:42:58.614Z,30.10
2017-08-23T11:45:29.949Z,30.20
2017-08-23T11:48:00.364Z,30.20
2017-08-23T11:50:31.068Z,30.10
2017-08-23T11:53:02.397Z,29.90
2017-08-23T11:55:32.622Z,29.90
2017-08-23T11:58:02.960Z,29.90
2017-08-23T12:00:33.314Z,29.80
2017-08-23T12:03:03.759Z,29.70
2017-08-23T12:05:34.260Z,29.70
2017-08-23T12:08:05.048Z,29.60
2017-08-23T12:10:35.435Z,29.60
2017-08-23T12:13:05.818Z,29.50
2017-08-23T12:15:36.335Z,29.60
2017-08-23T12:18:07.033Z,29.60
2017-08-23T12:20:38.473Z,29.60
2017-08-23T12:23:09.027Z,29.60
2017-08-23T12:25:39.520Z,29.60
2017-08-23T12:28:09.998Z,29.60
2017-08-23T12:30:40.574Z,29.60
2017-08-23T12:33:11.210Z,29.50
2017-08-23T12:35:41.809Z,29.50
2017-08-23T12:38:12.414Z,29.50
2017-08-23T12:40:43.079Z,29.40
2017-08-23T12:43:13.627Z,29.40
2017-08-23T12:45:44.050Z,29.40
2017-08-23T12:48:14.432Z,29.30
2017-08-23T12:50:44.982Z,29.20
2017-08-23T12:53:15.576Z,29.20
2017-08-23T12:55:46.804Z,29.00
2017-08-23T12:58:17.395Z,29.00
2017-08-23T13:00:47.966Z,29.00
2017-08-23T13:03:18.643Z,29.00
2017-08-23T13:05:49.175Z,28.90
2017-08-23T13:08:20.418Z,28.90
2017-08-23T13:10:50.974Z,28.90
2017-08-23T13:13:21.478Z,28.90
2017-08-23T13:15:51.879Z,28.80
2017-08-23T13:18:22.543Z,28.80
2017-08-23T13:20:53.271Z,28.70
2017-08-23T13:23:23.802Z,28.60
2017-08-23T13:25:54.218Z,28.60
2017-08-23T13:28:25.482Z,28.60
2017-08-23T13:30:55.937Z,28.60
2017-08-23T13:33:26.323Z,28.60
2017-08-23T13:35:57.026Z,28.60
2017-08-23T13:38:27.608Z,28.70
2017-08-23T13:40:58.239Z,28.70
2017-08-23T13:43:28.868Z,28.70
2017-08-23T13:45:59.505Z,28.70
2017-08-23T13:48:29.864Z,28.70
2017-08-23T13:51:00.414Z,28.70
2017-08-23T13:53:30.994Z,28.60
2017-08-23T13:56:01.563Z,28.60
2017-08-23T13:58:32.386Z,28.60
2017-08-23T14:01:02.950Z,28.50
2017-08-23T14:03:33.515Z,28.50
2017-08-23T14:06:04.199Z,28.50
2017-08-23T14:08:35.451Z,28.40
2017-08-23T14:11:06.132Z,28.40
2017-08-23T14:13:36.622Z,28.30
2017-08-23T14:16:07.146Z,28.30
2017-08-23T14:18:37.955Z,28.30
2017-08-23T14:21:08.597Z,28.30
2017-08-23T14:23:39.162Z,28.30
2017-08-23T14:26:09.714Z,28.30
2017-08-23T14:28:41.151Z,28.30
2017-08-23T14:31:11.766Z,28.30
2017-08-23T14:33:42.622Z,28.30
2017-08-23T14:36:13.120Z,28.30
2017-08-23T14:38:43.407Z,28.30
2017-08-23T14:41:13.958Z,28.30
2017-08-23T14:43:44.385Z,28.30
2017-08-23T14:46:15.064Z,28.30
2017-08-23T14:48:45.756Z,28.30
2017-08-23T14:51:16.381Z,28.30
2017-08-23T14:53:47.163Z,28.30
2017-08-23T14:56:18.664Z,28.30
2017-08-23T14:58:49.491Z,28.30
2017-08-23T15:01:20.195Z,28.30
2017-08-23T15:03:50.736Z,28.20
2017-08-23T15:06:21.442Z,28.20
2017-08-23T15:08:52.508Z,28.20
2017-08-23T15:11:23.363Z,28.10
2017-08-23T15:13:54.749Z,28.10
2017-08-23T15:16:25.356Z,28.10
2017-08-23T15:18:56.072Z,28.10
2017-08-23T15:21:26.715Z,28.10
2017-08-23T15:23:57.919Z,28.20
2017-08-23T15:26:28.601Z,28.30
2017-08-23T15:29:00.218Z,28.60
2017-08-23T15:31:30.855Z,28.60
2017-08-23T15:36:36.164Z,28.90
2017-08-23T15:39:06.951Z,29.00
2017-08-23T15:41:37.427Z,29.10
2017-08-23T15:44:07.864Z,29.10
2017-08-23T15:46:38.450Z,29.20
2017-08-23T15:49:08.997Z,29.20
2017-08-23T15:51:39.598Z,29.20
2017-08-23T15:54:10.165Z,29.20
2017-08-23T15:56:41.273Z,29.20
2017-08-23T15:59:11.760Z,29.10
2017-08-23T16:01:42.158Z,29.20
2017-08-23T16:04:12.536Z,29.10
2017-08-23T16:06:43.096Z,29.10
2017-08-23T16:09:14.159Z,29.20
2017-08-23T16:11:44.645Z,29.20
2017-08-23T16:14:15.259Z,29.10
2017-08-23T16:16:45.893Z,29.20
2017-08-23T16:19:16.520Z,29.30
2017-08-23T16:21:47.029Z,29.40
2017-08-23T16:24:18.522Z,29.40
2017-08-23T16:26:50.341Z,29.30
2017-08-23T16:29:20.785Z,29.30
2017-08-23T16:31:51.863Z,29.30
2017-08-23T16:34:22.498Z,29.30
2017-08-23T16:36:53.054Z,29.40
2017-08-23T16:39:23.657Z,29.30
2017-08-23T16:41:54.477Z,29.30
2017-08-23T16:44:24.834Z,29.30
2017-08-23T16:46:55.454Z,29.30
2017-08-23T16:49:25.964Z,29.30
2017-08-23T16:51:56.502Z,29.40
2017-08-23T16:54:27.222Z,29.40
2017-08-23T16:56:57.692Z,29.40
2017-08-23T16:59:28.159Z,29.40
2017-08-23T17:01:58.522Z,29.20
2017-08-23T17:04:29.087Z,29.10
2017-08-23T17:07:00.183Z,29.00
2017-08-23T17:09:31.019Z,29.00
2017-08-23T17:12:01.433Z,29.20
2017-08-23T17:14:31.980Z,29.20
2017-08-23T17:17:02.523Z,29.30
2017-08-23T17:19:33.022Z,29.20
2017-08-23T17:22:03.431Z,29.00
2017-08-23T17:24:33.856Z,29.00
2017-08-23T17:27:04.363Z,29.00
2017-08-23T17:29:34.933Z,29.00
2017-08-23T17:32:05.554Z,29.00
2017-08-23T17:34:36.144Z,29.10
2017-08-23T17:37:06.921Z,29.00
2017-08-23T17:39:37.504Z,28.90
2017-08-23T17:42:08.036Z,28.70
2017-08-23T17:44:38.677Z,28.50
2017-08-23T17:47:09.122Z,28.50
2017-08-23T17:49:40.012Z,28.50
2017-08-23T17:52:10.671Z,28.40
2017-08-23T17:54:41.294Z,28.30
2017-08-23T17:57:12.437Z,28.20
2017-08-23T17:59:42.898Z,28.20
2017-08-23T18:02:13.487Z,28.10
2017-08-23T18:04:44.116Z,28.20
2017-08-23T18:07:14.623Z,28.30
2017-08-23T18:09:45.460Z,28.40
2017-08-23T18:12:15.983Z,28.50
2017-08-23T18:14:46.596Z,28.60
2017-08-23T18:17:17.219Z,28.50
2017-08-23T18:19:47.715Z,28.40
2017-08-23T18:22:18.346Z,28.20
2017-08-23T18:24:49.014Z,28.20
2017-08-23T18:27:19.641Z,28.10
2017-08-23T18:29:50.146Z,28.00
2017-08-23T18:32:20.519Z,28.00
2017-08-23T18:34:51.040Z,28.00
2017-08-23T18:37:21.545Z,28.00
2017-08-23T18:39:52.918Z,28.00
2017-08-23T18:42:23.730Z,28.00
2017-08-23T18:44:54.355Z,28.10
2017-08-23T18:47:24.679Z,28.20
2017-08-23T18:49:55.972Z,28.20
2017-08-23T18:52:26.557Z,28.20
2017-08-23T18:54:57.105Z,28.00
2017-08-23T18:57:28.330Z,27.90
2017-08-23T18:59:58.704Z,27.90
2017-08-23T19:02:29.210Z,27.80
2017-08-23T19:05:00.300Z,27.60
2017-08-23T19:07:30.763Z,27.60
2017-08-23T19:10:01.463Z,27.50
2017-08-23T19:12:31.946Z,27.40
2017-08-23T19:15:02.413Z,27.40
2017-08-23T19:17:32.887Z,27.50
2017-08-23T19:20:03.451Z,27.70
2017-08-23T19:22:34.019Z,27.80
2017-08-23T19:25:04.620Z,27.90
2017-08-23T19:27:35.247Z,27.90
2017-08-23T19:30:05.831Z,27.80
2017-08-23T19:32:36.417Z,27.80
2017-08-23T19:35:06.924Z,27.70
2017-08-23T19:37:37.461Z,27.60
2017-08-23T19:40:08.651Z,27.50
2017-08-23T19:42:39.235Z,27.50
2017-08-23T19:45:09.753Z,27.40
2017-08-23T19:47:40.403Z,27.30
2017-08-23T19:50:10.848Z,27.40
2017-08-23T19:52:42.020Z,27.60
2017-08-23T19:55:12.653Z,27.60
2017-08-23T19:57:43.185Z,27.70
2017-08-23T20:00:13.705Z,27.60
2017-08-23T20:02:49.229Z,27.40
2017-08-23T20:05:19.687Z,27.40
2017-08-23T20:07:50.272Z,27.40
2017-08-23T20:10:20.842Z,27.40
2017-08-23T20:12:51.222Z,27.40
2017-08-23T20:15:21.855Z,27.50
2017-08-23T20:17:52.452Z,27.40
2017-08-23T20:20:23.086Z,27.40
2017-08-23T20:22:53.706Z,27.40
2017-08-23T20:25:23.987Z,27.40
2017-08-23T20:27:54.294Z,27.30
2017-08-23T20:30:25.148Z,27.20
2017-08-23T20:32:55.425Z,27.30
2017-08-23T20:35:26.008Z,27.30
2017-08-23T20:37:56.502Z,27.20
2017-08-23T20:40:27.052Z,27.30
2017-08-23T20:42:57.463Z,27.40
2017-08-23T20:45:27.858Z,27.30
2017-08-23T20:47:58.203Z,27.30
2017-08-23T20:50:28.717Z,27.30
2017-08-23T20:52:59.108Z,27.30
2017-08-23T20:55:29.654Z,27.20
2017-08-23T20:58:00.779Z,27.20
2017-08-23T21:00:36.772Z,27.20
2017-08-23T21:03:07.414Z,27.20
2017-08-23T21:05:38.032Z,27.20
2017-08-23T21:08:08.610Z,27.20
2017-08-23T21:10:39.803Z,27.30
2017-08-23T21:13:10.424Z,27.30
2017-08-23T21:15:42.016Z,27.20
2017-08-23T21:18:12.524Z,27.10
2017-08-23T21:20:42.967Z,27.20
2017-08-23T21:23:13.535Z,27.20
2017-08-23T21:25:44.086Z,27.10
2017-08-23T21:28:14.761Z,27.20
2017-08-23T21:30:45.402Z,27.20
2017-08-23T21:33:16.051Z,27.10
2017-08-23T21:35:46.655Z,27.10
2017-08-23T21:38:17.210Z,27.00
2017-08-23T21:40:47.837Z,27.10
2017-08-23T21:43:19.066Z,27.10
2017-08-23T21:45:49.590Z,27.10
2017-08-23T21:48:20.212Z,27.20
2017-08-23T21:50:50.857Z,27.20
2017-08-23T21:53:22.029Z,27.20
2017-08-23T21:55:52.444Z,27.20
2017-08-23T21:58:22.991Z,27.20
2017-08-23T22:00:54.074Z,27.20
2017-08-23T22:03:24.553Z,27.10
2017-08-23T22:05:55.002Z,27.00
2017-08-23T22:08:25.552Z,27.00
2017-08-23T22:10:56.572Z,27.00
2017-08-23T22:13:26.951Z,27.00
2017-08-23T22:15:57.513Z,27.00
2017-08-23T22:18:28.343Z,27.20
2017-08-23T22:20:58.971Z,27.30
2017-08-23T22:23:29.487Z,27.30
2017-08-23T22:25:59.933Z,27.10
2017-08-23T22:28:30.510Z,27.00
2017-08-23T22:31:01.065Z,27.00
2017-08-23T22:33:31.651Z,27.00
2017-08-23T22:36:02.264Z,26.90
2017-08-23T22:38:32.802Z,27.00
2017-08-23T22:41:03.321Z,27.00
2017-08-23T22:43:34.612Z,27.00
2017-08-23T22:46:05.276Z,27.00
2017-08-23T22:48:35.876Z,27.00
2017-08-23T22:51:06.384Z,26.90
2017-08-23T22:53:37.007Z,26.80
2017-08-23T22:56:07.540Z,26.90
2017-08-23T22:58:37.983Z,27.00
2017-08-23T23:01:08.596Z,27.10
2017-08-23T23:03:39.385Z,27.10
2017-08-23T23:06:09.885Z,27.10
2017-08-23T23:08:40.355Z,27.10
2017-08-23T23:11:11.463Z,27.10
2017-08-23T23:13:41.960Z,27.10
2017-08-23T23:16:12.616Z,27.00
2017-08-23T23:18:45.456Z,27.00
2017-08-23T23:21:15.924Z,27.00
2017-08-23T23:23:46.336Z,26.90
2017-08-23T23:26:16.866Z,26.80
2017-08-23T23:28:47.364Z,26.90
2017-08-23T23:31:17.931Z,26.90
2017-08-23T23:33:49.214Z,27.00
2017-08-23T23:36:19.677Z,27.00
2017-08-23T23:38:50.100Z,27.10
2017-08-23T23:41:20.516Z,27.00
2017-08-23T23:43:50.930Z,27.00
2017-08-23T23:46:21.357Z,27.00
2017-08-23T23:48:51.818Z,27.20
2017-08-23T23:51:22.273Z,27.30
2017-08-23T23:53:52.775Z,27.20
2017-08-23T23:56:23.323Z,27.20
2017-08-23T23:58:54.206Z,27.30
